Time;durP1;ratioP1;P1;durP2;ratioP2;P2;SDS_P1;SDS_P2;PMS_P1;PMS_P2;Temp;Humidity;BMP_temperature;BMP_pressure;BME280_temperature;BME280_humidity;BME280_pressure;Samples;Min_cycle;Max_cycle;Signal;HPM_P1;HPM_P2
2023/11/15 00:00:34;;;;;;;4.80;3.40;;;;;;;1.01;100.00;100166.53;5028473;28;20049;-66
2023/11/15 00:03:00;;;;;;;4.83;4.20;;;;;;;0.89;100.00;100139.47;5030408;28;20041;-65
2023/11/15 00:05:28;;;;;;;3.77;3.47;;;;;;;1.00;100.00;100160.47;5031682;28;20109;-65
2023/11/15 00:07:55;;;;;;;4.88;4.38;;;;;;;1.04;100.00;100174.19;5028115;28;20072;-66
2023/11/15 00:10:22;;;;;;;4.13;3.70;;;;;;;0.98;100.00;100172.88;5029457;28;20206;-65
2023/11/15 00:12:48;;;;;;;5.57;4.17;;;;;;;0.95;100.00;100164.41;5029690;28;20287;-63
2023/11/15 00:15:14;;;;;;;7.57;6.53;;;;;;;0.95;100.00;100157.38;5026436;28;20760;-66
2023/11/15 00:17:40;;;;;;;5.80;4.40;;;;;;;1.13;100.00;100171.69;5029912;28;20140;-66
2023/11/15 00:20:08;;;;;;;5.70;5.17;;;;;;;0.94;100.00;100137.34;5028006;28;20146;-66
2023/11/15 00:22:34;;;;;;;10.15;8.93;;;;;;;1.11;100.00;100162.25;5028895;28;20044;-64
2023/11/15 00:24:59;;;;;;;8.80;7.90;;;;;;;0.86;100.00;100127.41;5027384;28;20061;-65
2023/11/15 00:27:26;;;;;;;6.17;5.17;;;;;;;1.18;100.00;100184.47;5031847;28;20041;-65
2023/11/15 00:29:52;;;;;;;10.27;9.17;;;;;;;0.95;100.00;100148.66;5026395;28;20172;-65
2023/11/15 00:32:19;;;;;;;7.23;6.53;;;;;;;1.01;100.00;100169.16;5031762;28;20283;-65
2023/11/15 00:34:46;;;;;;;4.20;3.80;;;;;;;1.03;100.00;100178.59;5029839;28;20645;-66
2023/11/15 00:37:11;;;;;;;5.10;4.60;;;;;;;1.15;100.00;100195.16;5029158;28;20331;-65
2023/11/15 00:39:40;;;;;;;8.17;6.90;;;;;;;1.10;100.00;100181.56;5029258;28;20311;-65
2023/11/15 00:42:08;;;;;;;5.50;4.50;;;;;;;1.16;100.00;100192.47;5029593;28;20046;-66
2023/11/15 00:44:33;;;;;;;6.27;4.50;;;;;;;1.15;100.00;100193.38;5027235;28;20076;-66
2023/11/15 00:46:59;;;;;;;6.47;5.10;;;;;;;1.14;100.00;100183.00;5030935;28;20806;-66
2023/11/15 00:49:25;;;;;;;5.67;3.90;;;;;;;1.15;100.00;100184.69;5030063;28;20090;-66
2023/11/15 00:51:51;;;;;;;5.33;3.87;;;;;;;1.23;100.00;100195.44;5012137;28;20338;-66
2023/11/15 00:54:17;;;;;;;7.50;5.00;;;;;;;1.20;100.00;100193.91;5031555;28;20037;-65
2023/11/15 00:56:42;;;;;;;9.37;4.43;;;;;;;1.21;100.00;100189.47;5031981;28;20866;-65
2023/11/15 00:59:09;;;;;;;5.27;4.50;;;;;;;1.12;100.00;100177.88;5046470;28;20041;-65
2023/11/15 01:01:36;;;;;;;5.70;4.57;;;;;;;1.21;100.00;100203.44;5049985;28;20057;-64
2023/11/15 01:04:05;;;;;;;6.17;5.43;;;;;;;1.16;100.00;100207.38;5051420;28;20288;-67
2023/11/15 01:06:31;;;;;;;;;;;;;;;1.17;100.00;100203.78;5034904;28;20283;-66
2023/11/15 01:08:57;;;;;;;4.20;3.50;;;;;;;0.93;100.00;100175.84;5048705;28;20395;-65
2023/11/15 01:11:26;;;;;;;3.10;2.67;;;;;;;0.76;100.00;100168.38;5044541;28;20288;-67
2023/11/15 01:13:53;;;;;;;4.13;3.55;;;;;;;0.89;100.00;100184.06;5051706;28;20291;-65
2023/11/15 01:16:23;;;;;;;4.53;3.40;;;;;;;1.06;100.00;100201.97;5049229;28;20117;-66
2023/11/15 01:18:49;;;;;;;3.87;2.40;;;;;;;1.07;100.00;100210.66;5051301;28;20346;-65
2023/11/15 01:21:18;;;;;;;3.77;2.83;;;;;;;1.02;100.00;100203.13;5052061;28;20295;-66
2023/11/15 01:23:44;;;;;;;4.90;2.67;;;;;;;1.10;100.00;100215.66;5054141;28;20284;-65
2023/11/15 01:26:11;;;;;;;3.00;2.70;;;;;;;1.06;100.00;100209.00;5052546;28;20033;-66
2023/11/15 01:28:37;;;;;;;2.50;2.30;;;;;;;1.11;100.00;100204.22;5049003;28;20288;-66
2023/11/15 01:31:03;;;;;;;2.67;2.30;;;;;;;1.09;100.00;100208.75;5036134;28;20284;-64
2023/11/15 01:33:29;;;;;;;2.70;2.20;;;;;;;0.85;100.00;100178.19;5032971;28;20049;-65
2023/11/15 01:35:54;;;;;;;3.00;2.57;;;;;;;1.14;100.00;100222.34;5031942;28;20283;-67
2023/11/15 01:38:20;;;;;;;4.70;2.63;;;;;;;1.12;100.00;100213.75;5032299;28;20088;-66
2023/11/15 01:40:48;;;;;;;2.77;2.57;;;;;;;1.11;100.00;100214.72;5028722;28;20045;-65
2023/11/15 01:43:16;;;;;;;2.97;2.10;;;;;;;1.12;100.00;100201.47;5031602;28;20076;-67
2023/11/15 01:45:48;;;;;;;3.85;2.42;;;;;;;1.02;100.00;100186.56;5032183;28;20290;-66
2023/11/15 01:48:16;;;;;;;3.00;2.30;;;;;;;0.85;100.00;100166.84;5033581;28;20064;-65
2023/11/15 01:50:43;;;;;;;2.80;2.58;;;;;;;0.98;100.00;100203.50;5024527;28;20295;-65
2023/11/15 01:53:09;;;;;;;5.77;2.20;;;;;;;1.19;100.00;100231.56;5033555;28;20067;-64
2023/11/15 01:55:37;;;;;;;2.27;2.07;;;;;;;1.21;100.00;100231.44;5028739;28;20275;-67
2023/11/15 01:58:03;;;;;;;3.47;2.90;;;;;;;1.21;100.00;100241.94;5032956;28;20288;-64
2023/11/15 02:00:29;;;;;;;2.37;2.00;;;;;;;1.14;100.00;100230.22;5030864;28;20288;-66
2023/11/15 02:02:55;;;;;;;4.40;2.13;;;;;;;1.16;100.00;100230.97;5033965;28;20280;-67
2023/11/15 02:05:20;;;;;;;3.43;2.03;;;;;;;1.11;100.00;100219.97;5030640;28;20041;-65
2023/11/15 02:07:46;;;;;;;2.53;2.33;;;;;;;0.91;100.00;100190.00;5030848;28;20060;-67
2023/11/15 02:10:15;;;;;;;4.67;2.73;;;;;;;1.19;100.00;100244.69;5032371;28;20127;-65
2023/11/15 02:12:41;;;;;;;2.53;2.33;;;;;;;1.16;100.00;100246.72;5030602;28;20045;-64
2023/11/15 02:15:07;;;;;;;2.70;2.00;;;;;;;1.12;100.00;100240.00;5032656;28;20322;-64
2023/11/15 02:17:37;;;;;;;2.43;2.23;;;;;;;0.96;100.00;100221.97;5026912;28;20103;-65
2023/11/15 02:20:05;;;;;;;2.47;2.27;;;;;;;1.03;100.00;100232.81;5031468;28;20276;-64
2023/11/15 02:22:31;;;;;;;2.40;2.20;;;;;;;1.18;100.00;100252.66;5036087;28;20580;-66
2023/11/15 02:24:58;;;;;;;2.63;2.00;;;;;;;1.18;100.00;100247.41;5037911;28;20041;-65
2023/11/15 02:27:24;;;;;;;2.00;1.80;;;;;;;1.24;100.00;100246.97;5041615;28;20343;-66
2023/11/15 02:29:49;;;;;;;2.60;2.10;;;;;;;1.18;100.00;100243.00;5036026;28;20284;-67
2023/11/15 02:32:15;;;;;;;3.03;2.20;;;;;;;1.07;100.00;100235.09;5029401;28;20045;-65
2023/11/15 02:34:41;;;;;;;2.10;1.90;;;;;;;1.08;100.00;100238.56;5028051;28;20383;-64
2023/11/15 02:37:06;;;;;;;2.37;1.97;;;;;;;0.94;100.00;100216.00;5029016;28;20064;-65
2023/11/15 02:39:32;;;;;;;3.27;1.80;;;;;;;1.07;100.00;100245.59;5031698;28;20037;-65
2023/11/15 02:41:57;;;;;;;2.03;1.83;;;;;;;1.16;100.00;100250.16;5031711;28;20051;-65
2023/11/15 02:44:23;;;;;;;4.23;2.47;;;;;;;1.10;100.00;100244.50;5030729;28;20033;-65
2023/11/15 02:46:49;;;;;;;2.50;2.20;;;;;;;1.08;100.00;100236.75;5028654;28;20041;-64
2023/11/15 02:49:14;;;;;;;2.30;2.10;;;;;;;0.82;100.00;100198.53;5029215;28;20045;-65
2023/11/15 02:51:40;;;;;;;4.37;2.10;;;;;;;1.11;100.00;100251.44;5032053;28;20412;-65
2023/11/15 02:54:05;;;;;;;3.40;2.00;;;;;;;1.00;100.00;100231.25;5030232;28;20087;-64
2023/11/15 02:56:31;;;;;;;2.97;1.90;;;;;;;1.10;100.00;100255.00;5031128;28;20049;-67
2023/11/15 02:58:57;;;;;;;2.97;2.00;;;;;;;1.07;100.00;100252.63;5031763;28;20045;-66
2023/11/15 03:01:22;;;;;;;3.37;2.53;;;;;;;1.02;100.00;100247.72;5030346;28;20044;-66
2023/11/15 03:03:48;;;;;;;3.03;2.20;;;;;;;1.04;100.00;100269.41;5030738;28;20158;-66
2023/11/15 03:06:14;;;;;;;3.70;2.37;;;;;;;0.97;100.00;100259.50;5028888;28;20065;-64
2023/11/15 03:08:39;;;;;;;3.73;2.80;;;;;;;1.05;100.00;100267.63;5028255;28;20492;-66
2023/11/15 03:11:06;;;;;;;2.73;2.53;;;;;;;1.00;100.00;100264.50;5030009;28;20041;-65
2023/11/15 03:13:33;;;;;;;3.37;2.23;;;;;;;0.93;100.00;100264.97;5029037;28;20041;-65
2023/11/15 03:15:58;;;;;;;2.87;2.63;;;;;;;0.79;100.00;100249.41;5023233;28;20371;-66
2023/11/15 03:18:25;;;;;;;3.30;2.80;;;;;;;0.81;100.00;100258.00;5031457;28;20371;-65
2023/11/15 03:20:50;;;;;;;5.87;2.27;;;;;;;0.71;100.00;100243.06;5029993;28;20638;-64
2023/11/15 03:23:16;;;;;;;3.77;2.43;;;;;;;0.71;100.00;100238.66;5031531;28;20276;-64
2023/11/15 03:25:43;;;;;;;5.80;2.77;;;;;;;0.80;100.00;100264.19;5031865;28;20049;-66
2023/11/15 03:28:08;;;;;;;3.20;2.60;;;;;;;0.77;100.00;100250.47;5026830;28;20047;-64
2023/11/15 03:30:34;;;;;;;3.63;2.40;;;;;;;0.75;100.00;100244.50;5030486;28;20359;-64
2023/11/15 03:33:00;;;;;;;4.03;2.80;;;;;;;0.83;100.00;100256.09;5031657;28;20409;-63
2023/11/15 03:35:26;;;;;;;3.53;2.90;;;;;;;1.00;100.00;100280.25;5031395;28;20052;-63
2023/11/15 03:37:52;;;;;;;4.37;2.40;;;;;;;1.01;100.00;100276.69;5027083;28;20045;-66
2023/11/15 03:40:19;;;;;;;2.83;2.40;;;;;;;1.02;100.00;100273.09;5029355;28;20067;-64
2023/11/15 03:42:48;;;;;;;2.70;2.40;;;;;;;1.04;100.00;100264.16;5031000;28;20563;-63
2023/11/15 03:45:14;;;;;;;3.10;2.40;;;;;;;1.03;100.00;100266.91;5032780;28;20280;-65
2023/11/15 03:47:40;;;;;;;5.07;2.67;;;;;;;1.03;100.00;100264.28;5029700;28;20091;-65
2023/11/15 03:50:07;;;;;;;3.93;2.60;;;;;;;1.07;100.00;100270.97;5031459;28;20264;-64
2023/11/15 03:52:32;;;;;;;3.57;3.27;;;;;;;1.08;100.00;100277.88;5008936;28;20041;-65
2023/11/15 03:54:58;;;;;;;4.37;2.63;;;;;;;0.94;100.00;100257.94;5027679;28;20283;-66
2023/11/15 03:57:25;;;;;;;4.67;2.53;;;;;;;0.82;100.00;100249.19;5028751;28;20045;-66
2023/11/15 03:59:58;;;;;;;3.30;2.40;;;;;;;0.96;100.00;100269.16;5028766;28;20283;-67
2023/11/15 04:02:24;;;;;;;2.83;2.47;;;;;;;0.80;100.00;100240.59;5031905;28;20259;-65
2023/11/15 04:04:51;;;;;;;4.20;2.83;;;;;;;1.07;100.00;100289.31;5025485;28;20303;-64
2023/11/15 04:07:16;;;;;;;2.60;2.33;;;;;;;1.09;100.00;100280.41;5031224;28;20276;-63
2023/11/15 04:09:42;;;;;;;3.43;2.63;;;;;;;1.04;100.00;100271.19;5032163;28;20338;-64
2023/11/15 04:12:08;;;;;;;3.60;2.80;;;;;;;0.97;100.00;100265.59;5030128;28;20134;-65
2023/11/15 04:14:34;;;;;;;3.63;2.43;;;;;;;0.99;100.00;100281.19;5031068;28;20049;-65
2023/11/15 04:17:00;;;;;;;4.00;2.47;;;;;;;1.03;100.00;100288.72;5032455;28;20044;-65
2023/11/15 04:19:26;;;;;;;3.20;2.73;;;;;;;0.91;100.00;100272.13;5030685;28;20795;-64
2023/11/15 04:21:52;;;;;;;3.50;3.13;;;;;;;1.00;100.00;100286.34;5032029;28;20758;-67
2023/11/15 04:24:18;;;;;;;3.13;2.73;;;;;;;1.05;100.00;100293.84;5029916;28;20329;-65
2023/11/15 04:26:48;;;;;;;4.17;2.90;;;;;;;0.96;100.00;100278.81;5021626;28;20293;-67
2023/11/15 04:29:13;;;;;;;3.53;2.63;;;;;;;0.97;100.00;100277.84;5021075;28;20132;-67
2023/11/15 04:31:39;;;;;;;3.43;2.63;;;;;;;1.04;100.00;100298.25;5029627;28;20796;-67
2023/11/15 04:34:08;;;;;;;4.13;3.07;;;;;;;1.00;100.00;100295.97;5027456;28;20397;-66
2023/11/15 04:36:35;;;;;;;3.50;2.87;;;;;;;0.81;100.00;100265.84;5030986;28;20872;-65
2023/11/15 04:39:07;;;;;;;3.30;2.60;;;;;;;0.99;100.00;100289.91;5027703;28;20284;-66
2023/11/15 04:41:34;;;;;;;5.97;3.10;;;;;;;1.05;100.00;100293.84;5026287;28;20285;-66
2023/11/15 04:44:00;;;;;;;3.57;3.27;;;;;;;1.08;100.00;100298.88;5028992;28;20275;-64
2023/11/15 04:46:29;;;;;;;3.67;2.83;;;;;;;1.12;100.00;100302.94;5025849;28;20384;-65
2023/11/15 04:48:54;;;;;;;2.50;2.25;;;;;;;1.12;100.00;100305.56;5027778;28;20337;-65
2023/11/15 04:51:20;;;;;;;3.97;2.70;;;;;;;1.16;100.00;100307.03;5029713;28;20041;-64
2023/11/15 04:53:45;;;;;;;5.43;3.63;;;;;;;1.16;100.00;100300.00;5025365;28;20053;-65
2023/11/15 04:56:11;;;;;;;2.77;2.43;;;;;;;1.12;100.00;100314.25;5026603;28;20598;-65
2023/11/15 04:58:37;;;;;;;3.17;2.40;;;;;;;1.14;100.00;100316.75;5027528;28;20041;-65
2023/11/15 05:01:04;;;;;;;3.13;2.73;;;;;;;1.01;100.00;100297.66;5026753;28;20143;-65
2023/11/15 05:03:29;;;;;;;3.53;2.67;;;;;;;1.14;100.00;100314.16;5023049;28;20376;-65
2023/11/15 05:05:55;;;;;;;3.27;2.97;;;;;;;1.16;100.00;100309.66;5026115;28;20348;-65
2023/11/15 05:08:20;;;;;;;3.30;2.83;;;;;;;1.26;100.00;100334.25;5029070;28;20045;-65
2023/11/15 05:10:46;;;;;;;3.10;2.70;;;;;;;1.27;100.00;100319.34;5025642;28;20077;-66
2023/11/15 05:13:12;;;;;;;3.00;2.47;;;;;;;1.25;100.00;100311.59;5027016;28;20121;-66
2023/11/15 05:15:38;;;;;;;3.73;2.40;;;;;;;1.22;100.00;100317.06;5025898;28;20135;-65
2023/11/15 05:18:04;;;;;;;6.63;3.87;;;;;;;1.23;100.00;100330.06;5028451;28;20783;-66
2023/11/15 05:20:30;;;;;;;4.90;3.07;;;;;;;1.13;100.00;100325.59;5011487;28;20443;-68
2023/11/15 05:22:55;;;;;;;4.50;3.30;;;;;;;1.16;100.00;100333.25;5024317;28;20049;-64
2023/11/15 05:25:21;;;;;;;7.40;3.20;;;;;;;1.19;100.00;100341.72;5024195;28;20550;-66
2023/11/15 05:27:47;;;;;;;4.40;2.90;;;;;;;1.11;100.00;100323.06;5026200;28;20041;-67
2023/11/15 05:30:15;;;;;;;5.17;2.93;;;;;;;1.21;100.00;100341.63;5023530;28;20044;-68
2023/11/15 05:32:42;;;;;;;6.07;2.73;;;;;;;1.23;100.00;100326.59;5028351;28;20272;-70
2023/11/15 05:35:10;;;;;;;3.47;2.60;;;;;;;1.35;100.00;100354.53;5026530;28;20331;-67
2023/11/15 05:37:37;;;;;;;4.77;3.27;;;;;;;1.38;100.00;100354.31;5020950;28;20307;-63
2023/11/15 05:40:07;;;;;;;3.90;2.50;;;;;;;1.36;100.00;100356.22;5027065;28;20362;-66
2023/11/15 05:42:33;;;;;;;4.60;3.40;;;;;;;1.31;100.00;100358.34;5027994;28;20092;-67
2023/11/15 05:44:59;;;;;;;3.37;2.60;;;;;;;1.25;100.00;100348.31;5028128;28;20767;-67
2023/11/15 05:47:26;;;;;;;3.23;2.80;;;;;;;1.27;100.00;100351.66;5029471;28;20268;-66
2023/11/15 05:49:55;;;;;;;2.97;2.37;;;;;;;1.33;100.00;100359.06;5029890;28;20288;-66
2023/11/15 05:52:21;;;;;;;3.80;3.10;;;;;;;1.29;100.00;100367.28;5030409;28;20790;-64
2023/11/15 05:54:47;;;;;;;5.57;3.47;;;;;;;1.27;100.00;100356.06;5030101;28;20091;-68
2023/11/15 05:57:13;;;;;;;4.17;3.47;;;;;;;1.35;100.00;100380.78;5030195;28;20303;-67
2023/11/15 05:59:40;;;;;;;4.83;3.23;;;;;;;1.28;100.00;100376.94;5030818;28;20351;-66
2023/11/15 06:02:05;;;;;;;5.10;3.30;;;;;;;0.96;100.00;100333.88;5030005;28;20624;-66
2023/11/15 06:04:34;;;;;;;4.60;3.27;;;;;;;1.13;100.00;100357.06;5031257;28;20355;-67
2023/11/15 06:07:01;;;;;;;;;;;;;;;1.27;100.00;100377.88;5031924;28;20037;-67
2023/11/15 06:09:27;;;;;;;5.13;2.97;;;;;;;1.16;100.00;100369.97;5032630;28;20011;-67
2023/11/15 06:11:53;;;;;;;4.63;3.27;;;;;;;1.26;100.00;100378.84;5034463;28;20269;-67
2023/11/15 06:14:19;;;;;;;6.53;4.10;;;;;;;1.13;100.00;100364.94;5033912;28;20268;-65
2023/11/15 06:16:44;;;;;;;5.17;4.03;;;;;;;1.20;100.00;100376.66;5034703;28;20033;-66
2023/11/15 06:19:10;;;;;;;5.97;3.87;;;;;;;1.15;100.00;100357.78;5034690;28;20052;-67
2023/11/15 06:21:41;;;;;;;4.73;3.50;;;;;;;1.27;100.00;100393.63;5028049;28;20404;-65
2023/11/15 06:24:06;;;;;;;5.47;3.70;;;;;;;1.23;100.00;100382.53;5033274;28;20389;-67
2023/11/15 06:26:36;;;;;;;4.63;2.90;;;;;;;1.21;100.00;100400.16;5032156;28;20358;-66
2023/11/15 06:29:03;;;;;;;5.63;3.43;;;;;;;1.24;100.00;100378.13;5033776;28;20049;-66
2023/11/15 06:31:29;;;;;;;4.40;3.10;;;;;;;1.32;100.00;100393.28;5033825;28;20268;-64
2023/11/15 06:33:55;;;;;;;4.40;3.93;;;;;;;1.31;100.00;100392.44;5033847;28;20686;-66
2023/11/15 06:36:21;;;;;;;5.47;3.40;;;;;;;1.29;100.00;100386.47;5034424;28;20472;-68
2023/11/15 06:38:46;;;;;;;5.37;3.07;;;;;;;0.96;100.00;100346.97;5033708;28;20087;-65
2023/11/15 06:41:12;;;;;;;4.20;3.30;;;;;;;1.23;100.00;100397.44;5033768;28;20038;-66
2023/11/15 06:43:37;;;;;;;4.93;3.97;;;;;;;1.14;100.00;100398.91;5033672;28;20037;-65
2023/11/15 06:46:03;;;;;;;4.30;3.47;;;;;;;1.10;100.00;100388.75;5032729;28;20030;-67
2023/11/15 06:48:29;;;;;;;7.87;3.83;;;;;;;1.25;100.00;100421.75;5033636;28;20037;-66
2023/11/15 06:50:54;;;;;;;4.67;3.30;;;;;;;0.90;100.00;100343.03;5031802;28;20496;-65
2023/11/15 06:53:20;;;;;;;3.87;2.93;;;;;;;1.33;100.00;100421.19;5019778;28;20056;-67
2023/11/15 06:55:46;;;;;;;3.83;3.30;;;;;;;1.21;100.00;100407.19;5033299;28;20037;-66
2023/11/15 06:58:15;;;;;;;4.23;3.30;;;;;;;1.23;100.00;100413.16;5033433;28;20069;-66
2023/11/15 07:00:44;;;;;;;;;;;;;;;1.38;100.00;100433.03;5034032;28;20363;-66
2023/11/15 07:03:12;;;;;;;5.68;3.65;;;;;;;1.36;100.00;100427.06;5016010;28;19924;-64
2023/11/15 07:05:41;;;;;;;3.58;2.92;;;;;;;1.36;100.00;100429.66;5033898;28;20033;-65
2023/11/15 07:08:11;;;;;;;7.03;4.60;;;;;;;1.37;100.00;100439.22;5031779;28;20041;-67
2023/11/15 07:10:40;;;;;;;3.20;2.83;;;;;;;1.27;100.00;100432.97;5031107;28;20280;-65
2023/11/15 07:13:08;;;;;;;3.33;2.90;;;;;;;1.33;100.00;100439.56;5031827;28;20374;-68
2023/11/15 07:15:35;;;;;;;3.35;2.72;;;;;;;1.20;100.00;100429.13;5031040;28;20276;-64
2023/11/15 07:18:02;;;;;;;5.10;3.73;;;;;;;1.09;100.00;100408.06;5030820;28;20042;-66
2023/11/15 07:20:28;;;;;;;5.33;2.93;;;;;;;1.17;100.00;100426.72;5032405;28;20272;-67
2023/11/15 07:22:54;;;;;;;4.23;3.13;;;;;;;1.25;100.00;100437.50;5031185;28;20333;-66
2023/11/15 07:25:20;;;;;;;3.83;3.37;;;;;;;1.11;100.00;100419.28;5028780;28;20131;-66
2023/11/15 07:27:46;;;;;;;4.33;2.80;;;;;;;1.22;100.00;100443.81;5032159;28;20719;-68
2023/11/15 07:30:13;;;;;;;7.23;2.90;;;;;;;1.33;100.00;100458.75;5025723;28;20110;-66
2023/11/15 07:32:40;;;;;;;4.80;3.10;;;;;;;1.23;100.00;100439.41;5029171;28;20416;-65
2023/11/15 07:35:08;;;;;;;5.53;3.33;;;;;;;1.34;100.00;100462.22;5029931;28;20291;-65
2023/11/15 07:37:35;;;;;;;3.97;3.60;;;;;;;1.29;100.00;100459.94;5030055;28;20318;-69
2023/11/15 07:40:00;;;;;;;4.83;3.33;;;;;;;1.32;100.00;100472.81;5029995;28;20041;-68
2023/11/15 07:42:27;;;;;;;6.23;4.63;;;;;;;1.31;100.00;100458.03;5027897;28;20288;-66
2023/11/15 07:44:53;;;;;;;4.30;3.90;;;;;;;1.42;100.00;100470.38;5029465;28;20283;-67
2023/11/15 07:47:18;;;;;;;3.57;3.10;;;;;;;1.47;100.00;100479.59;5031656;28;20276;-67
2023/11/15 07:49:44;;;;;;;5.80;3.67;;;;;;;1.32;100.00;100448.38;5029492;28;20158;-72
2023/11/15 07:52:13;;;;;;;4.70;3.67;;;;;;;1.53;100.00;100481.78;5030357;28;20071;-68
2023/11/15 07:54:39;;;;;;;4.90;3.65;;;;;;;1.36;100.00;100457.69;5033391;28;20052;-72
2023/11/15 07:57:07;;;;;;;6.07;3.70;;;;;;;1.44;100.00;100469.31;5032753;28;20152;-68
2023/11/15 07:59:34;;;;;;;6.50;4.03;;;;;;;1.49;100.00;100479.50;5033660;28;20272;-67
2023/11/15 08:02:00;;;;;;;4.57;3.60;;;;;;;1.34;100.00;100457.81;5030343;28;20048;-67
2023/11/15 08:04:26;;;;;;;5.83;4.80;;;;;;;1.44;100.00;100479.81;5023411;28;20354;-64
2023/11/15 08:06:52;;;;;;;5.93;3.83;;;;;;;1.42;100.00;100465.97;5024373;28;20744;-67
2023/11/15 08:09:24;;;;;;;5.50;4.30;;;;;;;1.25;100.00;100437.50;5031453;28;20095;-66
2023/11/15 08:11:53;;;;;;;5.83;3.83;;;;;;;1.44;100.00;100481.59;5031906;28;20037;-67
2023/11/15 08:14:21;;;;;;;4.80;4.40;;;;;;;1.40;100.00;100486.22;5030856;28;20280;-67
2023/11/15 08:16:47;;;;;;;4.07;3.07;;;;;;;1.45;100.00;100501.66;5029437;28;20296;-65
2023/11/15 08:19:13;;;;;;;5.30;3.30;;;;;;;1.37;100.00;100489.06;5025639;28;20326;-65
2023/11/15 08:21:39;;;;;;;8.93;3.80;;;;;;;1.45;100.00;100501.66;5031651;28;20034;-68
2023/11/15 08:24:06;;;;;;;6.63;3.57;;;;;;;1.48;100.00;100501.44;5023284;28;20287;-64
2023/11/15 08:26:33;;;;;;;8.30;5.03;;;;;;;1.55;100.00;100514.00;5028324;28;20880;-65
2023/11/15 08:28:59;;;;;;;4.43;3.90;;;;;;;1.44;100.00;100489.47;5029652;28;20288;-66
2023/11/15 08:31:26;;;;;;;8.17;5.57;;;;;;;1.53;100.00;100509.81;5029169;28;20310;-66
2023/11/15 08:33:53;;;;;;;7.60;5.77;;;;;;;1.44;100.00;100502.56;5029464;28;20038;-67
2023/11/15 08:36:18;;;;;;;5.50;4.33;;;;;;;1.52;100.00;100510.75;5031983;28;20420;-69
2023/11/15 08:38:44;;;;;;;5.13;4.20;;;;;;;1.44;100.00;100510.44;5029334;28;20280;-66
2023/11/15 08:41:14;;;;;;;7.83;5.40;;;;;;;1.54;100.00;100521.97;5031344;28;20523;-67
2023/11/15 08:43:40;;;;;;;8.47;4.83;;;;;;;1.51;100.00;100525.66;5027203;28;20045;-69
2023/11/15 08:46:06;;;;;;;6.73;4.80;;;;;;;1.30;100.00;100497.50;5025199;28;20359;-69
2023/11/15 08:48:33;;;;;;;10.20;4.63;;;;;;;1.27;100.00;100493.31;5031550;28;20037;-67
2023/11/15 08:51:02;;;;;;;5.33;4.40;;;;;;;1.52;100.00;100514.22;5029621;28;20041;-69
2023/11/15 08:53:28;;;;;;;;;;;;;;;1.67;100.00;100538.50;5030319;28;20276;-72
2023/11/15 08:55:55;;;;;;;8.77;5.37;;;;;;;1.30;100.00;100479.13;5025133;28;19945;-64
2023/11/15 08:58:30;;;;;;;8.53;5.47;;;;;;;1.50;100.00;100520.53;5029445;28;20358;-67
2023/11/15 09:01:01;;;;;;;8.07;5.90;;;;;;;1.38;100.00;100496.00;5014936;28;20356;-66
2023/11/15 09:03:27;;;;;;;9.43;4.53;;;;;;;1.48;100.00;100515.41;5030358;28;20276;-65
2023/11/15 09:05:55;;;;;;;7.80;5.10;;;;;;;1.58;100.00;100522.59;5032654;28;20402;-67
2023/11/15 09:08:22;;;;;;;5.97;4.70;;;;;;;1.60;100.00;100532.03;5032383;28;20276;-67
2023/11/15 09:10:50;;;;;;;5.60;4.00;;;;;;;1.17;100.00;100472.16;5031568;28;20334;-66
2023/11/15 09:13:18;;;;;;;9.82;5.47;;;;;;;1.37;100.00;100517.94;5030001;28;20284;-64
2023/11/15 09:15:46;;;;;;;5.83;4.43;;;;;;;1.51;100.00;100538.78;5032096;28;20037;-65
2023/11/15 09:18:15;;;;;;;7.60;3.60;;;;;;;1.50;100.00;100542.38;5027180;28;20296;-65
2023/11/15 09:20:41;;;;;;;6.00;4.22;;;;;;;1.12;100.00;100471.63;5025209;28;20159;-64
2023/11/15 09:23:08;;;;;;;5.43;4.10;;;;;;;1.51;100.00;100530.91;5032850;28;20099;-64
2023/11/15 09:25:36;;;;;;;6.47;4.10;;;;;;;1.50;100.00;100545.00;5035818;28;20284;-66
2023/11/15 09:28:04;;;;;;;6.05;4.38;;;;;;;1.41;100.00;100550.03;5040408;28;20304;-68
2023/11/15 09:30:31;;;;;;;3.30;3.00;;;;;;;1.17;100.00;100539.53;5039196;28;20089;-64
2023/11/15 09:32:57;;;;;;;4.53;3.20;;;;;;;1.25;100.00;100563.41;5036604;28;20033;-64
2023/11/15 09:35:31;;;;;;;3.67;3.20;;;;;;;1.15;100.00;100551.88;5031922;28;20284;-67
2023/11/15 09:37:58;;;;;;;4.00;2.90;;;;;;;1.10;100.00;100535.63;5026333;28;20335;-65
2023/11/15 09:40:25;;;;;;;7.33;4.37;;;;;;;1.05;100.00;100520.22;5031285;28;20275;-67
2023/11/15 09:42:54;;;;;;;6.17;3.73;;;;;;;1.24;100.00;100552.09;5033362;28;20314;-66
2023/11/15 09:45:23;;;;;;;9.13;4.63;;;;;;;1.29;100.00;100570.13;5027512;28;20280;-65
2023/11/15 09:47:51;;;;;;;6.53;4.07;;;;;;;1.09;100.00;100553.16;5030985;28;20500;-67
2023/11/15 09:50:21;;;;;;;5.63;4.10;;;;;;;1.23;100.00;100565.31;5027670;28;20330;-67
2023/11/15 09:52:53;;;;;;;8.73;4.60;;;;;;;1.18;100.00;100562.19;5031040;28;20292;-67
2023/11/15 09:55:21;;;;;;;6.93;4.97;;;;;;;0.93;100.00;100511.44;5029187;28;20277;-66
2023/11/15 09:57:49;;;;;;;4.85;3.67;;;;;;;1.35;100.00;100564.44;5034122;28;20307;-66
2023/11/15 10:00:16;;;;;;;6.37;4.20;;;;;;;1.37;100.00;100574.81;5025937;28;20049;-66
2023/11/15 10:02:42;;;;;;;9.23;5.43;;;;;;;1.35;100.00;100568.84;5030264;28;20280;-65
2023/11/15 10:05:20;;;;;;;9.80;5.27;;;;;;;1.23;100.00;100546.94;5033166;28;20707;-64
2023/11/15 10:07:55;;;;;;;8.77;5.90;;;;;;;1.40;100.00;100574.59;5028252;28;20288;-63
2023/11/15 10:10:22;;;;;;;8.47;6.43;;;;;;;1.38;100.00;100582.59;5031737;28;20297;-65
2023/11/15 10:12:50;;;;;;;6.77;4.93;;;;;;;1.21;100.00;100569.81;5033632;28;20311;-64
2023/11/15 10:15:39;;;;;;;5.97;3.70;;;;;;;1.35;100.00;100585.44;5033237;28;20303;-64
2023/11/15 10:18:11;;;;;;;;;;;;;;;1.37;100.00;100582.69;5034110;28;20045;-66
2023/11/15 10:20:37;;;;;;;6.63;4.50;;;;;;;1.27;100.00;100563.31;5034124;28;19940;-67
2023/11/15 10:23:02;;;;;;;6.90;5.63;;;;;;;1.26;100.00;100580.84;5034495;28;20746;-64
2023/11/15 10:25:28;;;;;;;5.83;4.03;;;;;;;1.30;100.00;100576.22;5034262;28;20057;-68
2023/11/15 10:28:04;;;;;;;5.63;3.90;;;;;;;1.25;100.00;100589.66;5033256;28;20049;-67
2023/11/15 10:30:29;;;;;;;6.23;3.80;;;;;;;1.22;100.00;100582.00;5031854;28;20045;-68
2023/11/15 10:33:10;;;;;;;6.47;4.13;;;;;;;1.27;100.00;100582.50;5033309;28;20454;-67
2023/11/15 10:35:37;;;;;;;5.37;3.87;;;;;;;1.16;100.00;100554.41;5033999;28;20491;-69
2023/11/15 10:38:04;;;;;;;3.90;2.90;;;;;;;1.35;100.00;100574.94;5029651;28;20339;-68
2023/11/15 10:40:30;;;;;;;10.93;5.53;;;;;;;1.53;100.00;100604.28;5031537;28;20398;-67
2023/11/15 10:42:58;;;;;;;8.57;3.57;;;;;;;1.48;100.00;100598.53;5031218;28;20280;-71
2023/11/15 10:45:27;;;;;;;7.60;3.75;;;;;;;1.46;100.00;100614.41;5031502;28;20371;-69
2023/11/15 10:48:11;;;;;;;4.63;3.50;;;;;;;1.33;100.00;100592.56;5032634;28;20064;-70
2023/11/15 10:50:45;;;;;;;8.80;5.20;;;;;;;1.40;100.00;100625.28;5027030;28;20324;-66
2023/11/15 10:53:12;;;;;;;8.70;5.20;;;;;;;1.28;100.00;100601.72;5028014;28;20303;-68
2023/11/15 10:55:39;;;;;;;16.93;8.27;;;;;;;1.35;100.00;100616.91;5023827;28;20288;-70
2023/11/15 10:58:08;;;;;;;12.03;7.00;;;;;;;1.38;100.00;100628.97;5030826;28;20462;-68
2023/11/15 11:00:37;;;;;;;9.40;6.33;;;;;;;1.33;100.00;100607.47;5028695;28;20450;-68
2023/11/15 11:03:05;;;;;;;12.60;6.20;;;;;;;1.02;100.00;100562.41;5026432;28;20284;-69
2023/11/15 11:05:49;;;;;;;8.90;4.83;;;;;;;1.35;100.00;100616.91;5027789;28;20124;-67
2023/11/15 11:08:34;;;;;;;7.57;4.40;;;;;;;1.37;100.00;100615.03;5029247;28;20291;-68
2023/11/15 11:11:43;;;;;;;8.87;5.63;;;;;;;1.43;100.00;100632.94;5032821;28;20330;-68
2023/11/15 11:14:21;;;;;;;6.00;4.70;;;;;;;1.42;100.00;100630.44;5024433;28;20287;-67
2023/11/15 11:16:47;;;;;;;9.10;5.23;;;;;;;1.21;100.00;100599.53;5026386;28;21110;-71
2023/11/15 11:19:19;;;;;;;5.23;3.90;;;;;;;1.46;100.00;100630.13;5028872;28;20284;-67
2023/11/15 11:22:04;;;;;;;7.00;4.03;;;;;;;1.37;100.00;100622.88;5026561;28;20282;-68
2023/11/15 11:24:31;;;;;;;7.20;4.47;;;;;;;1.34;100.00;100630.13;5030991;28;20367;-67
2023/11/15 11:27:13;;;;;;;6.60;3.70;;;;;;;1.36;100.00;100650.06;5033031;28;20296;-69